To NAV CANADA Home Page Login to a new session Search on AWWS site Feedback and Comments Disclaimer Vers la page française équivalente Tips FAQ What's new on the site To the Forecasts and Observations / NOTAM section To "File a Flight Plan" website Publications and other links Update of the User's profile FIC Telephone Numbers My Weather Data Folder Route Weather Data Regional Weather Data Local Weather Data To the Forecasts and Observations / NOTAM section
Request Generated 03/06/2015 at 10:59:46 UTC . Weather information available at that time is displayed.

METAR/TAF

STEPHENVILLE/NL    

METAR CYJT 061000Z 30011KT 15SM SCT020 M17/M21 A3001 RMK SC3 SLP165=
SPECI CYJT 060955Z 29011KT 15SM SCT020 M17/M21 A3001 RMK SC3 SLP164=
METAR CYJT 060900Z 30011G17KT 15SM BKN025 M16/M21 A2998 RMK SC5
SLP153=
METAR CYJT 060800Z 29010KT 12SM BKN025 M16/M21 A2995 RMK SC5 SLP143=

TAF AMD CYJT 060817Z 0608/0706 30012KT P6SM BKN025 TEMPO 0608/0615
2SM -SHSN BKN020
FM061500 28018G28KT 1SM -SHSN BLSN BKN020 PROB30 0615/0624 1/4SM
SHSN BLSN VV002
FM070200 28015KT 3SM -SHSN BKN020
RMK NXT FCST BY 061200Z=
Your time UTC time
Weather data provided by Environment Canada and NAV CANADA